sensor_id;sensor_type;location;lat;lon;timestamp;P1;durP1;ratioP1;P2;durP2;ratioP2
54561;SDS011;40456;53.358;-1.486;2023-02-10T00:00:55;2.55;;;1.17;;
54561;SDS011;40456;53.358;-1.486;2023-02-10T00:03:20;4.13;;;1.30;;
54561;SDS011;40456;53.358;-1.486;2023-02-10T00:05:45;1.17;;;0.70;;
54561;SDS011;40456;53.358;-1.486;2023-02-10T00:08:11;3.55;;;0.88;;
54561;SDS011;40456;53.358;-1.486;2023-02-10T00:10:37;5.72;;;1.20;;
54561;SDS011;40456;53.358;-1.486;2023-02-10T00:13:02;2.40;;;1.23;;
54561;SDS011;40456;53.358;-1.486;2023-02-10T00:15:27;3.42;;;0.90;;
54561;SDS011;40456;53.358;-1.486;2023-02-10T00:17:53;2.80;;;0.80;;
54561;SDS011;40456;53.358;-1.486;2023-02-10T00:20:18;3.33;;;1.20;;
54561;SDS011;40456;53.358;-1.486;2023-02-10T00:22:44;2.83;;;0.98;;
54561;SDS011;40456;53.358;-1.486;2023-02-10T00:25:09;5.68;;;1.30;;
54561;SDS011;40456;53.358;-1.486;2023-02-10T00:27:34;4.63;;;0.95;;
54561;SDS011;40456;53.358;-1.486;2023-02-10T00:30:00;2.53;;;1.08;;
54561;SDS011;40456;53.358;-1.486;2023-02-10T00:32:25;3.88;;;1.30;;
54561;SDS011;40456;53.358;-1.486;2023-02-10T00:34:51;3.70;;;1.15;;
54561;SDS011;40456;53.358;-1.486;2023-02-10T00:37:16;4.00;;;1.48;;
54561;SDS011;40456;53.358;-1.486;2023-02-10T00:39:41;2.03;;;1.05;;
54561;SDS011;40456;53.358;-1.486;2023-02-10T00:42:07;2.90;;;1.35;;
54561;SDS011;40456;53.358;-1.486;2023-02-10T00:44:44;3.72;;;1.20;;
54561;SDS011;40456;53.358;-1.486;2023-02-10T00:47:12;4.30;;;1.27;;
54561;SDS011;40456;53.358;-1.486;2023-02-10T00:49:37;4.68;;;1.02;;
54561;SDS011;40456;53.358;-1.486;2023-02-10T00:52:02;3.42;;;1.90;;
54561;SDS011;40456;53.358;-1.486;2023-02-10T00:54:28;6.18;;;1.35;;
54561;SDS011;40456;53.358;-1.486;2023-02-10T00:56:53;5.15;;;1.70;;
54561;SDS011;40456;53.358;-1.486;2023-02-10T00:59:19;3.47;;;1.80;;
54561;SDS011;40456;53.358;-1.486;2023-02-10T01:01:45;2.50;;;1.15;;
54561;SDS011;40456;53.358;-1.486;2023-02-10T01:04:10;4.25;;;1.55;;
54561;SDS011;40456;53.358;-1.486;2023-02-10T01:06:36;3.25;;;1.30;;
54561;SDS011;40456;53.358;-1.486;2023-02-10T01:09:02;6.07;;;1.83;;
54561;SDS011;40456;53.358;-1.486;2023-02-10T01:11:27;1.92;;;1.13;;
54561;SDS011;40456;53.358;-1.486;2023-02-10T01:13:53;2.83;;;1.60;;
54561;SDS011;40456;53.358;-1.486;2023-02-10T01:16:18;5.25;;;1.30;;
54561;SDS011;40456;53.358;-1.486;2023-02-10T01:18:44;3.58;;;1.10;;
54561;SDS011;40456;53.358;-1.486;2023-02-10T01:21:11;5.72;;;1.17;;
54561;SDS011;40456;53.358;-1.486;2023-02-10T01:23:40;5.18;;;1.52;;
54561;SDS011;40456;53.358;-1.486;2023-02-10T01:26:06;3.30;;;1.20;;
54561;SDS011;40456;53.358;-1.486;2023-02-10T01:28:32;3.85;;;1.40;;
54561;SDS011;40456;53.358;-1.486;2023-02-10T01:30:58;3.17;;;1.13;;
54561;SDS011;40456;53.358;-1.486;2023-02-10T01:33:23;4.93;;;1.50;;
54561;SDS011;40456;53.358;-1.486;2023-02-10T01:35:48;3.60;;;1.40;;
54561;SDS011;40456;53.358;-1.486;2023-02-10T01:38:14;4.38;;;1.20;;
54561;SDS011;40456;53.358;-1.486;2023-02-10T01:40:39;3.40;;;1.70;;
54561;SDS011;40456;53.358;-1.486;2023-02-10T01:43:14;3.33;;;1.27;;
54561;SDS011;40456;53.358;-1.486;2023-02-10T01:45:41;1.80;;;1.00;;
54561;SDS011;40456;53.358;-1.486;2023-02-10T01:48:07;3.08;;;1.33;;
54561;SDS011;40456;53.358;-1.486;2023-02-10T01:50:41;4.13;;;1.30;;
54561;SDS011;40456;53.358;-1.486;2023-02-10T01:53:09;3.08;;;1.20;;
54561;SDS011;40456;53.358;-1.486;2023-02-10T01:55:35;5.25;;;1.27;;
54561;SDS011;40456;53.358;-1.486;2023-02-10T01:58:05;3.10;;;1.00;;
54561;SDS011;40456;53.358;-1.486;2023-02-10T02:00:31;4.97;;;1.30;;
54561;SDS011;40456;53.358;-1.486;2023-02-10T02:02:57;5.40;;;1.85;;
54561;SDS011;40456;53.358;-1.486;2023-02-10T02:05:30;3.35;;;1.23;;
54561;SDS011;40456;53.358;-1.486;2023-02-10T02:08:02;4.07;;;1.40;;
54561;SDS011;40456;53.358;-1.486;2023-02-10T02:10:33;5.63;;;1.00;;
54561;SDS011;40456;53.358;-1.486;2023-02-10T02:13:43;5.82;;;1.45;;
54561;SDS011;40456;53.358;-1.486;2023-02-10T02:16:26;2.58;;;1.00;;
54561;SDS011;40456;53.358;-1.486;2023-02-10T02:19:02;4.20;;;1.20;;
54561;SDS011;40456;53.358;-1.486;2023-02-10T02:24:21;7.75;;;1.33;;
54561;SDS011;40456;53.358;-1.486;2023-02-10T02:27:05;6.57;;;1.88;;
54561;SDS011;40456;53.358;-1.486;2023-02-10T02:29:45;3.17;;;1.30;;
54561;SDS011;40456;53.358;-1.486;2023-02-10T02:32:36;4.50;;;1.50;;
54561;SDS011;40456;53.358;-1.486;2023-02-10T02:35:04;3.78;;;0.85;;
54561;SDS011;40456;53.358;-1.486;2023-02-10T02:37:33;5.47;;;1.67;;
54561;SDS011;40456;53.358;-1.486;2023-02-10T02:40:10;1.95;;;0.90;;
54561;SDS011;40456;53.358;-1.486;2023-02-10T02:42:36;5.35;;;1.42;;
54561;SDS011;40456;53.358;-1.486;2023-02-10T02:51:36;5.10;;;1.20;;
54561;SDS011;40456;53.358;-1.486;2023-02-10T02:56:34;5.20;;;1.17;;
54561;SDS011;40456;53.358;-1.486;2023-02-10T03:01:43;4.50;;;1.73;;
54561;SDS011;40456;53.358;-1.486;2023-02-10T03:04:11;7.10;;;1.55;;
54561;SDS011;40456;53.358;-1.486;2023-02-10T03:06:38;2.90;;;1.00;;
54561;SDS011;40456;53.358;-1.486;2023-02-10T03:09:04;3.10;;;1.30;;
54561;SDS011;40456;53.358;-1.486;2023-02-10T03:11:29;2.03;;;1.08;;
54561;SDS011;40456;53.358;-1.486;2023-02-10T03:13:55;3.40;;;1.05;;
54561;SDS011;40456;53.358;-1.486;2023-02-10T03:16:20;2.25;;;1.10;;
54561;SDS011;40456;53.358;-1.486;2023-02-10T03:18:45;1.90;;;0.80;;
54561;SDS011;40456;53.358;-1.486;2023-02-10T03:21:11;7.03;;;1.23;;
54561;SDS011;40456;53.358;-1.486;2023-02-10T03:23:36;1.95;;;0.98;;
54561;SDS011;40456;53.358;-1.486;2023-02-10T03:26:02;4.22;;;1.17;;
54561;SDS011;40456;53.358;-1.486;2023-02-10T03:28:27;2.72;;;1.30;;
54561;SDS011;40456;53.358;-1.486;2023-02-10T03:30:53;4.05;;;1.17;;
54561;SDS011;40456;53.358;-1.486;2023-02-10T03:33:18;2.33;;;0.80;;
54561;SDS011;40456;53.358;-1.486;2023-02-10T03:35:44;2.58;;;1.08;;
54561;SDS011;40456;53.358;-1.486;2023-02-10T03:38:11;4.07;;;1.00;;
54561;SDS011;40456;53.358;-1.486;2023-02-10T03:40:37;3.22;;;0.75;;
54561;SDS011;40456;53.358;-1.486;2023-02-10T03:43:03;3.22;;;1.10;;
54561;SDS011;40456;53.358;-1.486;2023-02-10T03:45:28;6.53;;;1.45;;
54561;SDS011;40456;53.358;-1.486;2023-02-10T03:47:54;4.07;;;1.10;;
54561;SDS011;40456;53.358;-1.486;2023-02-10T03:50:19;6.60;;;1.50;;
54561;SDS011;40456;53.358;-1.486;2023-02-10T03:52:45;4.63;;;1.40;;
54561;SDS011;40456;53.358;-1.486;2023-02-10T03:55:10;4.25;;;1.20;;
54561;SDS011;40456;53.358;-1.486;2023-02-10T03:57:39;2.67;;;1.00;;
54561;SDS011;40456;53.358;-1.486;2023-02-10T04:00:05;3.08;;;0.88;;
54561;SDS011;40456;53.358;-1.486;2023-02-10T04:02:31;2.47;;;0.75;;
54561;SDS011;40456;53.358;-1.486;2023-02-10T04:04:56;5.47;;;1.00;;
54561;SDS011;40456;53.358;-1.486;2023-02-10T04:07:22;4.32;;;1.10;;
54561;SDS011;40456;53.358;-1.486;2023-02-10T04:09:47;3.08;;;0.88;;
54561;SDS011;40456;53.358;-1.486;2023-02-10T04:12:12;4.53;;;1.17;;
54561;SDS011;40456;53.358;-1.486;2023-02-10T04:14:38;1.42;;;0.55;;
54561;SDS011;40456;53.358;-1.486;2023-02-10T04:17:04;4.22;;;0.80;;
54561;SDS011;40456;53.358;-1.486;2023-02-10T04:19:29;4.55;;;1.00;;
54561;SDS011;40456;53.358;-1.486;2023-02-10T04:21:55;1.85;;;0.80;;
54561;SDS011;40456;53.358;-1.486;2023-02-10T04:24:20;2.50;;;0.77;;
54561;SDS011;40456;53.358;-1.486;2023-02-10T04:26:46;3.45;;;0.90;;
54561;SDS011;40456;53.358;-1.486;2023-02-10T04:29:11;2.90;;;1.13;;
54561;SDS011;40456;53.358;-1.486;2023-02-10T04:31:36;4.45;;;0.75;;
54561;SDS011;40456;53.358;-1.486;2023-02-10T04:34:02;3.30;;;0.80;;
54561;SDS011;40456;53.358;-1.486;2023-02-10T04:36:27;2.40;;;0.80;;
54561;SDS011;40456;53.358;-1.486;2023-02-10T04:38:52;2.60;;;0.95;;
54561;SDS011;40456;53.358;-1.486;2023-02-10T04:41:18;3.72;;;0.75;;
54561;SDS011;40456;53.358;-1.486;2023-02-10T04:43:43;5.47;;;1.00;;
54561;SDS011;40456;53.358;-1.486;2023-02-10T04:46:09;5.50;;;0.80;;
54561;SDS011;40456;53.358;-1.486;2023-02-10T04:48:34;3.10;;;0.95;;
54561;SDS011;40456;53.358;-1.486;2023-02-10T04:51:05;3.08;;;0.60;;
54561;SDS011;40456;53.358;-1.486;2023-02-10T04:53:31;2.13;;;0.88;;
54561;SDS011;40456;53.358;-1.486;2023-02-10T04:55:57;5.53;;;0.82;;
54561;SDS011;40456;53.358;-1.486;2023-02-10T04:58:22;3.65;;;0.80;;
54561;SDS011;40456;53.358;-1.486;2023-02-10T05:00:47;2.35;;;0.77;;
54561;SDS011;40456;53.358;-1.486;2023-02-10T05:03:13;1.83;;;0.52;;
54561;SDS011;40456;53.358;-1.486;2023-02-10T05:05:38;2.30;;;0.70;;
54561;SDS011;40456;53.358;-1.486;2023-02-10T05:08:03;3.55;;;0.80;;
54561;SDS011;40456;53.358;-1.486;2023-02-10T05:10:29;3.45;;;0.82;;
54561;SDS011;40456;53.358;-1.486;2023-02-10T05:12:54;2.45;;;1.05;;
54561;SDS011;40456;53.358;-1.486;2023-02-10T05:15:19;1.02;;;0.50;;
54561;SDS011;40456;53.358;-1.486;2023-02-10T05:17:45;3.90;;;1.25;;
54561;SDS011;40456;53.358;-1.486;2023-02-10T05:20:10;2.53;;;0.88;;
54561;SDS011;40456;53.358;-1.486;2023-02-10T05:22:36;1.88;;;0.70;;
54561;SDS011;40456;53.358;-1.486;2023-02-10T05:25:02;3.25;;;0.85;;
54561;SDS011;40456;53.358;-1.486;2023-02-10T05:27:28;2.35;;;0.70;;
54561;SDS011;40456;53.358;-1.486;2023-02-10T05:29:53;2.08;;;0.90;;
54561;SDS011;40456;53.358;-1.486;2023-02-10T05:32:19;2.67;;;1.00;;
54561;SDS011;40456;53.358;-1.486;2023-02-10T05:34:44;5.55;;;1.45;;
54561;SDS011;40456;53.358;-1.486;2023-02-10T05:37:09;2.22;;;1.02;;
54561;SDS011;40456;53.358;-1.486;2023-02-10T05:39:35;1.13;;;0.68;;
54561;SDS011;40456;53.358;-1.486;2023-02-10T05:42:00;3.60;;;0.50;;
54561;SDS011;40456;53.358;-1.486;2023-02-10T05:44:26;6.30;;;0.88;;
54561;SDS011;40456;53.358;-1.486;2023-02-10T05:46:52;3.15;;;0.73;;
54561;SDS011;40456;53.358;-1.486;2023-02-10T05:49:18;1.48;;;0.70;;
54561;SDS011;40456;53.358;-1.486;2023-02-10T05:51:43;2.97;;;0.63;;
54561;SDS011;40456;53.358;-1.486;2023-02-10T05:54:09;1.30;;;0.60;;
54561;SDS011;40456;53.358;-1.486;2023-02-10T05:56:35;5.53;;;0.88;;
54561;SDS011;40456;53.358;-1.486;2023-02-10T05:59:00;2.97;;;0.63;;
54561;SDS011;40456;53.358;-1.486;2023-02-10T06:01:26;2.65;;;1.08;;
54561;SDS011;40456;53.358;-1.486;2023-02-10T06:03:51;3.25;;;1.00;;
54561;SDS011;40456;53.358;-1.486;2023-02-10T06:06:16;5.13;;;0.93;;
54561;SDS011;40456;53.358;-1.486;2023-02-10T06:08:42;3.88;;;0.85;;
54561;SDS011;40456;53.358;-1.486;2023-02-10T06:11:07;3.88;;;0.80;;
54561;SDS011;40456;53.358;-1.486;2023-02-10T06:13:33;1.90;;;0.80;;
54561;SDS011;40456;53.358;-1.486;2023-02-10T06:15:59;3.17;;;1.05;;
54561;SDS011;40456;53.358;-1.486;2023-02-10T06:18:26;1.77;;;0.70;;
54561;SDS011;40456;53.358;-1.486;2023-02-10T06:20:52;3.63;;;0.98;;
54561;SDS011;40456;53.358;-1.486;2023-02-10T06:23:17;3.95;;;0.85;;
54561;SDS011;40456;53.358;-1.486;2023-02-10T06:25:44;1.95;;;0.70;;
54561;SDS011;40456;53.358;-1.486;2023-02-10T06:28:10;1.45;;;0.57;;
54561;SDS011;40456;53.358;-1.486;2023-02-10T06:30:35;1.10;;;0.60;;
54561;SDS011;40456;53.358;-1.486;2023-02-10T06:33:01;1.98;;;0.75;;
54561;SDS011;40456;53.358;-1.486;2023-02-10T06:35:26;4.57;;;1.02;;
54561;SDS011;40456;53.358;-1.486;2023-02-10T06:37:52;2.38;;;0.57;;
54561;SDS011;40456;53.358;-1.486;2023-02-10T06:40:18;3.58;;;0.90;;
54561;SDS011;40456;53.358;-1.486;2023-02-10T06:42:44;5.53;;;1.05;;
54561;SDS011;40456;53.358;-1.486;2023-02-10T06:45:09;6.80;;;1.00;;
54561;SDS011;40456;53.358;-1.486;2023-02-10T06:47:35;3.20;;;0.70;;
54561;SDS011;40456;53.358;-1.486;2023-02-10T06:50:01;2.40;;;0.73;;
54561;SDS011;40456;53.358;-1.486;2023-02-10T06:52:26;2.47;;;1.05;;
54561;SDS011;40456;53.358;-1.486;2023-02-10T06:54:52;1.83;;;0.75;;
54561;SDS011;40456;53.358;-1.486;2023-02-10T06:57:17;4.07;;;0.85;;
54561;SDS011;40456;53.358;-1.486;2023-02-10T06:59:43;2.15;;;0.65;;
54561;SDS011;40456;53.358;-1.486;2023-02-10T07:02:12;3.92;;;0.70;;
54561;SDS011;40456;53.358;-1.486;2023-02-10T07:04:38;3.10;;;0.60;;
54561;SDS011;40456;53.358;-1.486;2023-02-10T07:07:04;3.05;;;0.70;;
54561;SDS011;40456;53.358;-1.486;2023-02-10T07:09:30;2.25;;;0.80;;
54561;SDS011;40456;53.358;-1.486;2023-02-10T07:11:56;2.20;;;0.80;;
54561;SDS011;40456;53.358;-1.486;2023-02-10T07:14:22;2.15;;;0.80;;
54561;SDS011;40456;53.358;-1.486;2023-02-10T07:16:48;3.08;;;0.80;;
54561;SDS011;40456;53.358;-1.486;2023-02-10T07:19:13;2.97;;;0.40;;
54561;SDS011;40456;53.358;-1.486;2023-02-10T07:21:39;4.88;;;0.68;;
54561;SDS011;40456;53.358;-1.486;2023-02-10T07:24:04;3.08;;;1.13;;
54561;SDS011;40456;53.358;-1.486;2023-02-10T07:26:30;6.35;;;0.55;;
54561;SDS011;40456;53.358;-1.486;2023-02-10T07:28:56;2.15;;;0.70;;
54561;SDS011;40456;53.358;-1.486;2023-02-10T07:31:21;2.92;;;0.75;;
54561;SDS011;40456;53.358;-1.486;2023-02-10T07:33:47;1.70;;;0.60;;
54561;SDS011;40456;53.358;-1.486;2023-02-10T07:36:12;2.13;;;0.60;;
54561;SDS011;40456;53.358;-1.486;2023-02-10T07:38:37;7.82;;;1.35;;
54561;SDS011;40456;53.358;-1.486;2023-02-10T07:41:04;2.13;;;0.88;;
54561;SDS011;40456;53.358;-1.486;2023-02-10T07:43:30;2.38;;;0.82;;
54561;SDS011;40456;53.358;-1.486;2023-02-10T07:45:55;2.97;;;0.95;;
54561;SDS011;40456;53.358;-1.486;2023-02-10T07:48:21;4.03;;;0.80;;
54561;SDS011;40456;53.358;-1.486;2023-02-10T07:50:47;4.82;;;0.70;;
54561;SDS011;40456;53.358;-1.486;2023-02-10T07:53:13;3.60;;;0.93;;
54561;SDS011;40456;53.358;-1.486;2023-02-10T07:55:38;4.10;;;0.70;;
54561;SDS011;40456;53.358;-1.486;2023-02-10T07:58:04;1.48;;;0.50;;
54561;SDS011;40456;53.358;-1.486;2023-02-10T08:00:30;2.28;;;0.80;;
54561;SDS011;40456;53.358;-1.486;2023-02-10T08:02:55;3.40;;;0.88;;
54561;SDS011;40456;53.358;-1.486;2023-02-10T08:05:21;2.60;;;0.85;;
54561;SDS011;40456;53.358;-1.486;2023-02-10T08:07:47;2.22;;;0.50;;
54561;SDS011;40456;53.358;-1.486;2023-02-10T08:10:13;3.10;;;0.85;;
54561;SDS011;40456;53.358;-1.486;2023-02-10T08:12:38;2.90;;;1.02;;
54561;SDS011;40456;53.358;-1.486;2023-02-10T08:15:04;2.05;;;0.50;;
54561;SDS011;40456;53.358;-1.486;2023-02-10T08:17:31;2.80;;;0.90;;
54561;SDS011;40456;53.358;-1.486;2023-02-10T08:19:56;2.83;;;0.68;;
54561;SDS011;40456;53.358;-1.486;2023-02-10T08:22:21;2.55;;;0.73;;
54561;SDS011;40456;53.358;-1.486;2023-02-10T08:24:47;2.88;;;0.60;;
54561;SDS011;40456;53.358;-1.486;2023-02-10T08:27:12;3.25;;;0.50;;
54561;SDS011;40456;53.358;-1.486;2023-02-10T08:29:38;2.20;;;0.45;;
54561;SDS011;40456;53.358;-1.486;2023-02-10T08:32:03;4.10;;;0.57;;
54561;SDS011;40456;53.358;-1.486;2023-02-10T08:34:29;1.80;;;0.60;;
54561;SDS011;40456;53.358;-1.486;2023-02-10T08:36:54;2.65;;;0.50;;
54561;SDS011;40456;53.358;-1.486;2023-02-10T08:39:19;3.35;;;0.63;;
54561;SDS011;40456;53.358;-1.486;2023-02-10T08:41:45;3.78;;;0.70;;
54561;SDS011;40456;53.358;-1.486;2023-02-10T08:44:13;4.93;;;1.05;;
54561;SDS011;40456;53.358;-1.486;2023-02-10T08:46:39;2.35;;;0.52;;
54561;SDS011;40456;53.358;-1.486;2023-02-10T08:49:04;2.42;;;0.52;;
54561;SDS011;40456;53.358;-1.486;2023-02-10T08:51:30;2.72;;;0.73;;
54561;SDS011;40456;53.358;-1.486;2023-02-10T08:53:59;4.50;;;0.95;;
54561;SDS011;40456;53.358;-1.486;2023-02-10T08:56:25;2.35;;;0.63;;
54561;SDS011;40456;53.358;-1.486;2023-02-10T08:58:50;1.10;;;0.47;;
54561;SDS011;40456;53.358;-1.486;2023-02-10T09:01:16;3.70;;;0.80;;
54561;SDS011;40456;53.358;-1.486;2023-02-10T09:03:44;2.80;;;0.70;;
54561;SDS011;40456;53.358;-1.486;2023-02-10T09:06:15;2.83;;;0.75;;
54561;SDS011;40456;53.358;-1.486;2023-02-10T09:08:43;2.28;;;0.68;;
54561;SDS011;40456;53.358;-1.486;2023-02-10T09:11:09;1.48;;;0.50;;
54561;SDS011;40456;53.358;-1.486;2023-02-10T09:13:35;4.53;;;0.80;;
54561;SDS011;40456;53.358;-1.486;2023-02-10T09:16:00;6.22;;;0.80;;
54561;SDS011;40456;53.358;-1.486;2023-02-10T09:18:26;2.42;;;0.75;;
54561;SDS011;40456;53.358;-1.486;2023-02-10T09:20:51;2.08;;;0.98;;
54561;SDS011;40456;53.358;-1.486;2023-02-10T09:23:17;5.40;;;1.15;;
54561;SDS011;40456;53.358;-1.486;2023-02-10T09:25:42;5.57;;;0.98;;
54561;SDS011;40456;53.358;-1.486;2023-02-10T09:28:07;3.95;;;0.90;;
54561;SDS011;40456;53.358;-1.486;2023-02-10T09:30:33;4.13;;;0.90;;
54561;SDS011;40456;53.358;-1.486;2023-02-10T09:32:59;3.80;;;0.75;;
54561;SDS011;40456;53.358;-1.486;2023-02-10T09:35:24;3.53;;;1.10;;
54561;SDS011;40456;53.358;-1.486;2023-02-10T09:37:50;2.58;;;0.80;;
54561;SDS011;40456;53.358;-1.486;2023-02-10T09:40:16;1.52;;;0.40;;
54561;SDS011;40456;53.358;-1.486;2023-02-10T09:45:33;3.83;;;0.77;;
54561;SDS011;40456;53.358;-1.486;2023-02-10T09:48:26;2.55;;;0.85;;
54561;SDS011;40456;53.358;-1.486;2023-02-10T09:53:44;4.35;;;0.73;;
54561;SDS011;40456;53.358;-1.486;2023-02-10T09:56:12;7.63;;;0.77;;
54561;SDS011;40456;53.358;-1.486;2023-02-10T09:58:42;6.07;;;0.80;;
54561;SDS011;40456;53.358;-1.486;2023-02-10T10:01:25;4.13;;;0.73;;
54561;SDS011;40456;53.358;-1.486;2023-02-10T10:03:57;2.95;;;0.70;;
54561;SDS011;40456;53.358;-1.486;2023-02-10T10:06:30;0.73;;;0.50;;
54561;SDS011;40456;53.358;-1.486;2023-02-10T10:11:51;5.10;;;0.90;;
54561;SDS011;40456;53.358;-1.486;2023-02-10T10:14:18;3.90;;;1.45;;
54561;SDS011;40456;53.358;-1.486;2023-02-10T10:19:36;1.63;;;1.05;;
54561;SDS011;40456;53.358;-1.486;2023-02-10T10:29:37;3.33;;;1.02;;
54561;SDS011;40456;53.358;-1.486;2023-02-10T10:32:18;2.47;;;0.75;;
54561;SDS011;40456;53.358;-1.486;2023-02-10T10:34:52;1.65;;;0.35;;
54561;SDS011;40456;53.358;-1.486;2023-02-10T10:37:20;1.80;;;1.00;;
54561;SDS011;40456;53.358;-1.486;2023-02-10T10:39:48;4.60;;;0.98;;
54561;SDS011;40456;53.358;-1.486;2023-02-10T10:42:37;1.70;;;0.82;;
54561;SDS011;40456;53.358;-1.486;2023-02-10T10:45:12;7.95;;;1.20;;
54561;SDS011;40456;53.358;-1.486;2023-02-10T10:47:46;2.38;;;0.57;;
54561;SDS011;40456;53.358;-1.486;2023-02-10T10:50:16;5.43;;;1.10;;
54561;SDS011;40456;53.358;-1.486;2023-02-10T10:52:44;1.50;;;0.50;;
54561;SDS011;40456;53.358;-1.486;2023-02-10T10:55:19;5.10;;;0.90;;
54561;SDS011;40456;53.358;-1.486;2023-02-10T10:57:48;1.88;;;0.73;;
54561;SDS011;40456;53.358;-1.486;2023-02-10T11:00:16;3.88;;;0.73;;
54561;SDS011;40456;53.358;-1.486;2023-02-10T11:02:53;2.03;;;0.40;;
54561;SDS011;40456;53.358;-1.486;2023-02-10T11:05:27;3.22;;;1.00;;
54561;SDS011;40456;53.358;-1.486;2023-02-10T11:07:55;5.25;;;0.73;;
54561;SDS011;40456;53.358;-1.486;2023-02-10T11:10:46;3.50;;;0.65;;
54561;SDS011;40456;53.358;-1.486;2023-02-10T11:13:20;2.20;;;0.50;;
54561;SDS011;40456;53.358;-1.486;2023-02-10T11:15:57;1.55;;;0.40;;
54561;SDS011;40456;53.358;-1.486;2023-02-10T11:18:30;1.85;;;0.65;;
54561;SDS011;40456;53.358;-1.486;2023-02-10T11:21:00;2.47;;;0.50;;
54561;SDS011;40456;53.358;-1.486;2023-02-10T11:23:27;1.58;;;0.65;;
54561;SDS011;40456;53.358;-1.486;2023-02-10T11:26:04;2.28;;;0.57;;
54561;SDS011;40456;53.358;-1.486;2023-02-10T11:28:34;2.15;;;0.65;;
54561;SDS011;40456;53.358;-1.486;2023-02-10T11:31:03;3.55;;;0.88;;
54561;SDS011;40456;53.358;-1.486;2023-02-10T11:33:56;5.25;;;0.98;;
54561;SDS011;40456;53.358;-1.486;2023-02-10T11:36:30;4.13;;;0.95;;
54561;SDS011;40456;53.358;-1.486;2023-02-10T11:39:00;1.15;;;0.60;;
54561;SDS011;40456;53.358;-1.486;2023-02-10T11:41:28;6.43;;;0.57;;
54561;SDS011;40456;53.358;-1.486;2023-02-10T11:43:55;6.20;;;0.80;;
54561;SDS011;40456;53.358;-1.486;2023-02-10T11:46:22;2.63;;;0.73;;
54561;SDS011;40456;53.358;-1.486;2023-02-10T11:48:57;2.13;;;0.82;;
54561;SDS011;40456;53.358;-1.486;2023-02-10T11:51:24;1.35;;;0.80;;
54561;SDS011;40456;53.358;-1.486;2023-02-10T11:53:50;1.17;;;0.57;;
54561;SDS011;40456;53.358;-1.486;2023-02-10T11:56:18;2.78;;;0.70;;
54561;SDS011;40456;53.358;-1.486;2023-02-10T12:01:58;2.17;;;0.57;;
54561;SDS011;40456;53.358;-1.486;2023-02-10T12:18:35;4.43;;;0.98;;
54561;SDS011;40456;53.358;-1.486;2023-02-10T12:29:21;5.63;;;1.13;;
54561;SDS011;40456;53.358;-1.486;2023-02-10T12:34:43;0.80;;;0.40;;
54561;SDS011;40456;53.358;-1.486;2023-02-10T12:52:10;3.63;;;0.88;;
54561;SDS011;40456;53.358;-1.486;2023-02-10T13:01:05;2.78;;;0.60;;
54561;SDS011;40456;53.358;-1.486;2023-02-10T13:03:10;5.18;;;0.88;;
54561;SDS011;40456;53.358;-1.486;2023-02-10T13:05:46;2.55;;;0.73;;
54561;SDS011;40456;53.358;-1.486;2023-02-10T13:08:14;4.45;;;0.82;;
54561;SDS011;40456;53.358;-1.486;2023-02-10T13:10:44;4.32;;;0.90;;
54561;SDS011;40456;53.358;-1.486;2023-02-10T13:13:16;2.67;;;0.93;;
54561;SDS011;40456;53.358;-1.486;2023-02-10T13:15:55;3.13;;;1.02;;
54561;SDS011;40456;53.358;-1.486;2023-02-10T13:18:24;4.60;;;1.00;;
54561;SDS011;40456;53.358;-1.486;2023-02-10T13:20:58;5.30;;;1.10;;
54561;SDS011;40456;53.358;-1.486;2023-02-10T13:36:40;3.15;;;0.90;;
54561;SDS011;40456;53.358;-1.486;2023-02-10T13:39:18;1.95;;;1.02;;
54561;SDS011;40456;53.358;-1.486;2023-02-10T13:41:46;2.63;;;0.95;;
54561;SDS011;40456;53.358;-1.486;2023-02-10T13:44:37;2.90;;;0.75;;
54561;SDS011;40456;53.358;-1.486;2023-02-10T13:47:17;3.88;;;1.35;;
54561;SDS011;40456;53.358;-1.486;2023-02-10T13:50:06;1.97;;;0.70;;
54561;SDS011;40456;53.358;-1.486;2023-02-10T13:55:27;2.40;;;0.98;;
54561;SDS011;40456;53.358;-1.486;2023-02-10T14:00:28;3.50;;;0.80;;
54561;SDS011;40456;53.358;-1.486;2023-02-10T14:03:03;3.42;;;0.75;;
54561;SDS011;40456;53.358;-1.486;2023-02-10T14:05:58;3.13;;;1.00;;
54561;SDS011;40456;53.358;-1.486;2023-02-10T14:08:38;1.80;;;0.88;;
54561;SDS011;40456;53.358;-1.486;2023-02-10T14:13:41;1.90;;;0.70;;
54561;SDS011;40456;53.358;-1.486;2023-02-10T14:18:45;2.25;;;0.82;;
54561;SDS011;40456;53.358;-1.486;2023-02-10T14:21:15;3.08;;;1.20;;
54561;SDS011;40456;53.358;-1.486;2023-02-10T14:23:51;3.35;;;1.00;;
54561;SDS011;40456;53.358;-1.486;2023-02-10T14:26:20;5.55;;;1.27;;
54561;SDS011;40456;53.358;-1.486;2023-02-10T14:28:49;1.75;;;0.90;;
54561;SDS011;40456;53.358;-1.486;2023-02-10T14:31:20;1.83;;;0.75;;
54561;SDS011;40456;53.358;-1.486;2023-02-10T14:33:54;2.00;;;0.82;;
54561;SDS011;40456;53.358;-1.486;2023-02-10T14:36:21;1.27;;;0.75;;
54561;SDS011;40456;53.358;-1.486;2023-02-10T14:38:52;5.38;;;0.95;;
54561;SDS011;40456;53.358;-1.486;2023-02-10T14:41:21;3.28;;;1.08;;
54561;SDS011;40456;53.358;-1.486;2023-02-10T14:43:48;5.65;;;1.00;;
54561;SDS011;40456;53.358;-1.486;2023-02-10T14:46:19;2.42;;;0.80;;
54561;SDS011;40456;53.358;-1.486;2023-02-10T14:48:47;3.03;;;0.80;;
54561;SDS011;40456;53.358;-1.486;2023-02-10T14:51:20;2.63;;;0.88;;
54561;SDS011;40456;53.358;-1.486;2023-02-10T14:53:46;1.77;;;0.85;;
54561;SDS011;40456;53.358;-1.486;2023-02-10T14:56:15;2.83;;;0.90;;
54561;SDS011;40456;53.358;-1.486;2023-02-10T14:58:50;1.77;;;0.82;;
54561;SDS011;40456;53.358;-1.486;2023-02-10T15:01:34;2.28;;;0.90;;
54561;SDS011;40456;53.358;-1.486;2023-02-10T15:04:00;3.40;;;0.88;;
54561;SDS011;40456;53.358;-1.486;2023-02-10T15:06:28;1.50;;;0.80;;
54561;SDS011;40456;53.358;-1.486;2023-02-10T15:09:05;2.38;;;0.90;;
54561;SDS011;40456;53.358;-1.486;2023-02-10T15:11:37;2.08;;;0.98;;
54561;SDS011;40456;53.358;-1.486;2023-02-10T15:16:51;1.60;;;0.90;;
54561;SDS011;40456;53.358;-1.486;2023-02-10T15:19:17;2.88;;;0.95;;
54561;SDS011;40456;53.358;-1.486;2023-02-10T15:21:44;2.67;;;1.38;;
54561;SDS011;40456;53.358;-1.486;2023-02-10T15:24:21;3.38;;;1.65;;
54561;SDS011;40456;53.358;-1.486;2023-02-10T15:26:54;3.35;;;1.05;;
54561;SDS011;40456;53.358;-1.486;2023-02-10T15:29:20;2.28;;;1.10;;
54561;SDS011;40456;53.358;-1.486;2023-02-10T15:31:56;3.47;;;1.40;;
54561;SDS011;40456;53.358;-1.486;2023-02-10T15:34:30;2.53;;;1.23;;
54561;SDS011;40456;53.358;-1.486;2023-02-10T15:37:03;2.95;;;1.30;;
54561;SDS011;40456;53.358;-1.486;2023-02-10T15:39:31;2.00;;;1.27;;
54561;SDS011;40456;53.358;-1.486;2023-02-10T15:50:16;2.38;;;1.38;;
54561;SDS011;40456;53.358;-1.486;2023-02-10T15:52:39;5.93;;;1.65;;
54561;SDS011;40456;53.358;-1.486;2023-02-10T15:55:19;2.83;;;1.80;;
54561;SDS011;40456;53.358;-1.486;2023-02-10T15:57:46;2.38;;;1.52;;
54561;SDS011;40456;53.358;-1.486;2023-02-10T16:00:18;3.38;;;1.80;;
54561;SDS011;40456;53.358;-1.486;2023-02-10T16:02:48;3.22;;;1.90;;
54561;SDS011;40456;53.358;-1.486;2023-02-10T16:05:14;3.75;;;1.85;;
54561;SDS011;40456;53.358;-1.486;2023-02-10T16:07:40;2.83;;;2.17;;
54561;SDS011;40456;53.358;-1.486;2023-02-10T16:10:05;4.10;;;1.98;;
54561;SDS011;40456;53.358;-1.486;2023-02-10T16:12:31;4.25;;;2.00;;
54561;SDS011;40456;53.358;-1.486;2023-02-10T16:14:56;4.60;;;2.78;;
54561;SDS011;40456;53.358;-1.486;2023-02-10T16:17:27;3.55;;;2.08;;
54561;SDS011;40456;53.358;-1.486;2023-02-10T16:19:54;4.53;;;2.67;;
54561;SDS011;40456;53.358;-1.486;2023-02-10T16:22:19;3.65;;;2.13;;
54561;SDS011;40456;53.358;-1.486;2023-02-10T16:24:45;2.30;;;2.08;;
54561;SDS011;40456;53.358;-1.486;2023-02-10T16:27:13;5.13;;;2.22;;
54561;SDS011;40456;53.358;-1.486;2023-02-10T16:29:39;4.68;;;2.33;;
54561;SDS011;40456;53.358;-1.486;2023-02-10T16:32:04;2.95;;;2.28;;
54561;SDS011;40456;53.358;-1.486;2023-02-10T16:34:30;4.05;;;2.20;;
54561;SDS011;40456;53.358;-1.486;2023-02-10T16:36:56;3.83;;;2.42;;